sensor_id;sensor_type;location;lat;lon;timestamp;P1;durP1;ratioP1;P2;durP2;ratioP2
56233;SDS011;42141;53.240;6.580;2022-10-22T00:01:09;11.38;;;6.57;;
56233;SDS011;42141;53.240;6.580;2022-10-22T00:03:34;13.10;;;6.40;;
56233;SDS011;42141;53.240;6.580;2022-10-22T00:06:00;13.07;;;7.13;;
56233;SDS011;42141;53.240;6.580;2022-10-22T00:08:26;17.58;;;7.20;;
56233;SDS011;42141;53.240;6.580;2022-10-22T00:10:52;10.50;;;7.78;;
56233;SDS011;42141;53.240;6.580;2022-10-22T00:13:18;9.90;;;5.95;;
56233;SDS011;42141;53.240;6.580;2022-10-22T00:15:44;10.18;;;6.05;;
56233;SDS011;42141;53.240;6.580;2022-10-22T00:18:09;9.35;;;6.45;;
56233;SDS011;42141;53.240;6.580;2022-10-22T00:20:35;11.10;;;6.95;;
56233;SDS011;42141;53.240;6.580;2022-10-22T00:23:01;9.65;;;6.93;;
56233;SDS011;42141;53.240;6.580;2022-10-22T00:25:26;9.43;;;5.95;;
56233;SDS011;42141;53.240;6.580;2022-10-22T00:27:52;8.05;;;5.97;;
56233;SDS011;42141;53.240;6.580;2022-10-22T00:30:18;11.40;;;6.25;;
56233;SDS011;42141;53.240;6.580;2022-10-22T00:32:44;10.38;;;6.35;;
56233;SDS011;42141;53.240;6.580;2022-10-22T00:35:10;9.18;;;6.90;;
56233;SDS011;42141;53.240;6.580;2022-10-22T00:37:38;8.45;;;6.30;;
56233;SDS011;42141;53.240;6.580;2022-10-22T00:40:04;10.93;;;6.78;;
56233;SDS011;42141;53.240;6.580;2022-10-22T00:42:30;12.35;;;5.82;;
56233;SDS011;42141;53.240;6.580;2022-10-22T00:50:34;8.70;;;5.95;;
56233;SDS011;42141;53.240;6.580;2022-10-22T00:53:05;15.40;;;6.15;;
56233;SDS011;42141;53.240;6.580;2022-10-22T00:55:38;13.10;;;6.22;;
56233;SDS011;42141;53.240;6.580;2022-10-22T00:58:05;13.85;;;6.70;;
56233;SDS011;42141;53.240;6.580;2022-10-22T01:00:31;16.63;;;6.70;;
56233;SDS011;42141;53.240;6.580;2022-10-22T01:02:57;12.18;;;7.07;;
56233;SDS011;42141;53.240;6.580;2022-10-22T01:05:25;13.93;;;6.78;;
56233;SDS011;42141;53.240;6.580;2022-10-22T01:07:53;15.93;;;6.78;;
56233;SDS011;42141;53.240;6.580;2022-10-22T01:13:02;10.48;;;6.78;;
56233;SDS011;42141;53.240;6.580;2022-10-22T01:15:38;14.27;;;7.47;;
56233;SDS011;42141;53.240;6.580;2022-10-22T01:18:08;10.77;;;6.55;;
56233;SDS011;42141;53.240;6.580;2022-10-22T01:20:59;11.32;;;6.65;;
56233;SDS011;42141;53.240;6.580;2022-10-22T01:24:10;12.90;;;6.45;;
56233;SDS011;42141;53.240;6.580;2022-10-22T01:29:11;12.00;;;6.40;;
56233;SDS011;42141;53.240;6.580;2022-10-22T01:31:44;15.95;;;6.75;;
56233;SDS011;42141;53.240;6.580;2022-10-22T01:34:15;21.77;;;6.80;;
56233;SDS011;42141;53.240;6.580;2022-10-22T01:36:43;9.02;;;6.88;;
56233;SDS011;42141;53.240;6.580;2022-10-22T01:39:11;11.07;;;6.22;;
56233;SDS011;42141;53.240;6.580;2022-10-22T01:41:41;13.02;;;6.93;;
56233;SDS011;42141;53.240;6.580;2022-10-22T01:44:29;8.82;;;6.20;;
56233;SDS011;42141;53.240;6.580;2022-10-22T01:47:06;15.80;;;6.55;;
56233;SDS011;42141;53.240;6.580;2022-10-22T01:52:51;10.77;;;6.10;;
56233;SDS011;42141;53.240;6.580;2022-10-22T01:56:20;10.25;;;5.40;;
56233;SDS011;42141;53.240;6.580;2022-10-22T02:01:31;8.60;;;5.30;;
56233;SDS011;42141;53.240;6.580;2022-10-22T02:04:05;13.90;;;5.85;;
56233;SDS011;42141;53.240;6.580;2022-10-22T02:06:37;10.77;;;4.78;;
56233;SDS011;42141;53.240;6.580;2022-10-22T02:09:04;11.57;;;6.40;;
56233;SDS011;42141;53.240;6.580;2022-10-22T02:11:33;10.73;;;6.20;;
56233;SDS011;42141;53.240;6.580;2022-10-22T02:14:00;15.70;;;5.97;;
56233;SDS011;42141;53.240;6.580;2022-10-22T02:16:29;12.57;;;6.00;;
56233;SDS011;42141;53.240;6.580;2022-10-22T02:18:59;8.70;;;5.25;;
56233;SDS011;42141;53.240;6.580;2022-10-22T02:21:28;13.15;;;5.70;;
56233;SDS011;42141;53.240;6.580;2022-10-22T02:23:55;11.70;;;6.53;;
56233;SDS011;42141;53.240;6.580;2022-10-22T02:26:30;11.15;;;5.95;;
56233;SDS011;42141;53.240;6.580;2022-10-22T02:29:04;19.85;;;6.43;;
56233;SDS011;42141;53.240;6.580;2022-10-22T02:31:57;10.68;;;5.75;;
56233;SDS011;42141;53.240;6.580;2022-10-22T02:34:26;12.40;;;5.53;;
56233;SDS011;42141;53.240;6.580;2022-10-22T02:36:55;10.60;;;6.10;;
56233;SDS011;42141;53.240;6.580;2022-10-22T02:39:22;9.98;;;6.47;;
56233;SDS011;42141;53.240;6.580;2022-10-22T02:41:48;8.65;;;6.05;;
56233;SDS011;42141;53.240;6.580;2022-10-22T02:44:14;14.15;;;5.93;;
56233;SDS011;42141;53.240;6.580;2022-10-22T02:46:44;10.98;;;5.72;;
56233;SDS011;42141;53.240;6.580;2022-10-22T02:49:10;11.82;;;5.90;;
56233;SDS011;42141;53.240;6.580;2022-10-22T02:51:35;13.48;;;6.82;;
56233;SDS011;42141;53.240;6.580;2022-10-22T02:54:01;14.07;;;6.05;;
56233;SDS011;42141;53.240;6.580;2022-10-22T02:56:27;13.32;;;5.47;;
56233;SDS011;42141;53.240;6.580;2022-10-22T02:58:53;9.13;;;5.07;;
56233;SDS011;42141;53.240;6.580;2022-10-22T03:01:19;13.82;;;6.57;;
56233;SDS011;42141;53.240;6.580;2022-10-22T03:03:44;10.52;;;5.85;;
56233;SDS011;42141;53.240;6.580;2022-10-22T03:06:10;9.45;;;5.43;;
56233;SDS011;42141;53.240;6.580;2022-10-22T03:08:36;19.05;;;6.18;;
56233;SDS011;42141;53.240;6.580;2022-10-22T03:11:02;12.73;;;6.25;;
56233;SDS011;42141;53.240;6.580;2022-10-22T03:13:27;13.05;;;6.03;;
56233;SDS011;42141;53.240;6.580;2022-10-22T03:15:53;18.75;;;6.57;;
56233;SDS011;42141;53.240;6.580;2022-10-22T03:18:19;8.50;;;5.50;;
56233;SDS011;42141;53.240;6.580;2022-10-22T03:20:44;12.35;;;7.03;;
56233;SDS011;42141;53.240;6.580;2022-10-22T03:23:11;12.63;;;5.57;;
56233;SDS011;42141;53.240;6.580;2022-10-22T03:25:39;13.27;;;5.18;;
56233;SDS011;42141;53.240;6.580;2022-10-22T03:28:07;10.75;;;5.43;;
56233;SDS011;42141;53.240;6.580;2022-10-22T03:30:37;11.15;;;5.32;;
56233;SDS011;42141;53.240;6.580;2022-10-22T03:33:02;11.70;;;4.95;;
56233;SDS011;42141;53.240;6.580;2022-10-22T03:35:29;13.50;;;5.63;;
56233;SDS011;42141;53.240;6.580;2022-10-22T03:37:55;10.43;;;5.68;;
56233;SDS011;42141;53.240;6.580;2022-10-22T03:40:23;14.52;;;5.28;;
56233;SDS011;42141;53.240;6.580;2022-10-22T03:42:49;13.95;;;5.25;;
56233;SDS011;42141;53.240;6.580;2022-10-22T03:45:15;10.80;;;5.45;;
56233;SDS011;42141;53.240;6.580;2022-10-22T03:47:40;7.57;;;5.70;;
56233;SDS011;42141;53.240;6.580;2022-10-22T03:50:06;16.30;;;5.82;;
56233;SDS011;42141;53.240;6.580;2022-10-22T03:52:36;7.82;;;4.80;;
56233;SDS011;42141;53.240;6.580;2022-10-22T03:55:04;13.23;;;6.50;;
56233;SDS011;42141;53.240;6.580;2022-10-22T03:57:30;12.93;;;5.43;;
56233;SDS011;42141;53.240;6.580;2022-10-22T03:59:56;16.98;;;6.63;;
56233;SDS011;42141;53.240;6.580;2022-10-22T04:02:22;13.68;;;5.85;;
56233;SDS011;42141;53.240;6.580;2022-10-22T04:04:48;16.30;;;6.00;;
56233;SDS011;42141;53.240;6.580;2022-10-22T04:07:20;17.00;;;5.65;;
56233;SDS011;42141;53.240;6.580;2022-10-22T04:09:46;12.07;;;6.88;;
56233;SDS011;42141;53.240;6.580;2022-10-22T04:12:12;11.57;;;6.15;;
56233;SDS011;42141;53.240;6.580;2022-10-22T04:14:37;13.40;;;5.85;;
56233;SDS011;42141;53.240;6.580;2022-10-22T04:17:03;12.82;;;7.13;;
56233;SDS011;42141;53.240;6.580;2022-10-22T04:19:29;10.32;;;5.75;;
56233;SDS011;42141;53.240;6.580;2022-10-22T04:21:58;15.27;;;6.07;;
56233;SDS011;42141;53.240;6.580;2022-10-22T04:24:24;12.98;;;5.28;;
56233;SDS011;42141;53.240;6.580;2022-10-22T04:26:52;18.45;;;6.18;;
56233;SDS011;42141;53.240;6.580;2022-10-22T04:29:19;16.90;;;6.25;;
56233;SDS011;42141;53.240;6.580;2022-10-22T04:31:44;12.95;;;5.72;;
56233;SDS011;42141;53.240;6.580;2022-10-22T04:34:10;8.77;;;5.82;;
56233;SDS011;42141;53.240;6.580;2022-10-22T04:36:36;13.50;;;6.05;;
56233;SDS011;42141;53.240;6.580;2022-10-22T04:39:02;14.55;;;6.38;;
56233;SDS011;42141;53.240;6.580;2022-10-22T04:41:30;14.32;;;6.55;;
56233;SDS011;42141;53.240;6.580;2022-10-22T04:43:58;12.77;;;6.55;;
56233;SDS011;42141;53.240;6.580;2022-10-22T04:46:25;10.45;;;6.70;;
56233;SDS011;42141;53.240;6.580;2022-10-22T04:48:52;12.90;;;7.30;;
56233;SDS011;42141;53.240;6.580;2022-10-22T04:51:18;15.23;;;6.80;;
56233;SDS011;42141;53.240;6.580;2022-10-22T04:53:45;10.50;;;6.70;;
56233;SDS011;42141;53.240;6.580;2022-10-22T04:58:54;15.73;;;7.18;;
56233;SDS011;42141;53.240;6.580;2022-10-22T05:01:25;12.73;;;6.10;;
56233;SDS011;42141;53.240;6.580;2022-10-22T05:03:53;17.08;;;6.80;;
56233;SDS011;42141;53.240;6.580;2022-10-22T05:06:20;12.55;;;7.32;;
56233;SDS011;42141;53.240;6.580;2022-10-22T05:08:51;14.48;;;8.07;;
56233;SDS011;42141;53.240;6.580;2022-10-22T05:11:22;19.52;;;7.43;;
56233;SDS011;42141;53.240;6.580;2022-10-22T05:13:49;17.40;;;7.85;;
56233;SDS011;42141;53.240;6.580;2022-10-22T05:16:15;17.25;;;7.50;;
56233;SDS011;42141;53.240;6.580;2022-10-22T05:18:42;9.80;;;7.00;;
56233;SDS011;42141;53.240;6.580;2022-10-22T05:21:10;13.85;;;7.35;;
56233;SDS011;42141;53.240;6.580;2022-10-22T05:23:43;10.85;;;6.63;;
56233;SDS011;42141;53.240;6.580;2022-10-22T05:26:11;17.48;;;7.13;;
56233;SDS011;42141;53.240;6.580;2022-10-22T05:28:38;12.25;;;6.63;;
56233;SDS011;42141;53.240;6.580;2022-10-22T05:31:04;18.48;;;8.32;;
56233;SDS011;42141;53.240;6.580;2022-10-22T05:33:31;20.30;;;7.82;;
56233;SDS011;42141;53.240;6.580;2022-10-22T05:35:58;13.48;;;7.18;;
56233;SDS011;42141;53.240;6.580;2022-10-22T05:38:25;18.70;;;7.20;;
56233;SDS011;42141;53.240;6.580;2022-10-22T05:43:28;19.52;;;6.97;;
56233;SDS011;42141;53.240;6.580;2022-10-22T05:45:54;15.82;;;6.07;;
56233;SDS011;42141;53.240;6.580;2022-10-22T05:48:20;15.50;;;7.40;;
56233;SDS011;42141;53.240;6.580;2022-10-22T05:50:46;11.18;;;6.60;;
56233;SDS011;42141;53.240;6.580;2022-10-22T05:53:15;11.27;;;6.82;;
56233;SDS011;42141;53.240;6.580;2022-10-22T05:55:44;13.05;;;6.95;;
56233;SDS011;42141;53.240;6.580;2022-10-22T05:58:13;14.60;;;6.50;;
56233;SDS011;42141;53.240;6.580;2022-10-22T06:00:39;10.07;;;6.88;;
56233;SDS011;42141;53.240;6.580;2022-10-22T06:03:05;10.07;;;6.07;;
56233;SDS011;42141;53.240;6.580;2022-10-22T06:05:34;13.18;;;6.15;;
56233;SDS011;42141;53.240;6.580;2022-10-22T06:08:02;14.52;;;7.10;;
56233;SDS011;42141;53.240;6.580;2022-10-22T06:10:28;13.02;;;6.53;;
56233;SDS011;42141;53.240;6.580;2022-10-22T06:12:54;11.48;;;6.80;;
56233;SDS011;42141;53.240;6.580;2022-10-22T06:15:19;13.23;;;6.85;;
56233;SDS011;42141;53.240;6.580;2022-10-22T06:17:46;15.75;;;7.15;;
56233;SDS011;42141;53.240;6.580;2022-10-22T06:20:12;15.05;;;6.78;;
56233;SDS011;42141;53.240;6.580;2022-10-22T06:22:41;15.10;;;7.35;;
56233;SDS011;42141;53.240;6.580;2022-10-22T06:25:07;16.50;;;7.70;;
56233;SDS011;42141;53.240;6.580;2022-10-22T06:27:33;11.63;;;6.60;;
56233;SDS011;42141;53.240;6.580;2022-10-22T06:29:59;14.45;;;6.75;;
56233;SDS011;42141;53.240;6.580;2022-10-22T06:32:25;13.77;;;7.28;;
56233;SDS011;42141;53.240;6.580;2022-10-22T06:34:51;22.30;;;7.20;;
56233;SDS011;42141;53.240;6.580;2022-10-22T06:37:16;13.88;;;7.18;;
56233;SDS011;42141;53.240;6.580;2022-10-22T06:39:42;20.30;;;6.57;;
56233;SDS011;42141;53.240;6.580;2022-10-22T06:42:08;13.40;;;6.85;;
56233;SDS011;42141;53.240;6.580;2022-10-22T06:44:33;14.20;;;7.28;;
56233;SDS011;42141;53.240;6.580;2022-10-22T06:47:00;13.95;;;6.70;;
56233;SDS011;42141;53.240;6.580;2022-10-22T06:49:26;16.55;;;7.03;;
56233;SDS011;42141;53.240;6.580;2022-10-22T06:51:52;10.75;;;6.88;;
56233;SDS011;42141;53.240;6.580;2022-10-22T06:54:19;11.10;;;7.00;;
56233;SDS011;42141;53.240;6.580;2022-10-22T06:56:45;13.23;;;6.28;;
56233;SDS011;42141;53.240;6.580;2022-10-22T06:59:11;15.70;;;7.43;;
56233;SDS011;42141;53.240;6.580;2022-10-22T07:01:37;14.95;;;6.63;;
56233;SDS011;42141;53.240;6.580;2022-10-22T07:04:03;18.17;;;7.43;;
56233;SDS011;42141;53.240;6.580;2022-10-22T07:06:29;15.63;;;6.97;;
56233;SDS011;42141;53.240;6.580;2022-10-22T07:08:56;10.90;;;6.45;;
56233;SDS011;42141;53.240;6.580;2022-10-22T07:11:23;11.75;;;6.07;;
56233;SDS011;42141;53.240;6.580;2022-10-22T07:13:52;18.20;;;6.75;;
56233;SDS011;42141;53.240;6.580;2022-10-22T07:16:19;13.18;;;6.28;;
56233;SDS011;42141;53.240;6.580;2022-10-22T07:18:45;15.65;;;6.40;;
56233;SDS011;42141;53.240;6.580;2022-10-22T07:21:11;15.18;;;6.20;;
56233;SDS011;42141;53.240;6.580;2022-10-22T07:23:40;13.10;;;5.90;;
56233;SDS011;42141;53.240;6.580;2022-10-22T07:26:06;11.60;;;6.15;;
56233;SDS011;42141;53.240;6.580;2022-10-22T07:28:33;11.73;;;5.78;;
56233;SDS011;42141;53.240;6.580;2022-10-22T07:31:00;8.38;;;5.15;;
56233;SDS011;42141;53.240;6.580;2022-10-22T07:33:26;8.57;;;5.22;;
56233;SDS011;42141;53.240;6.580;2022-10-22T07:35:59;15.10;;;5.35;;
56233;SDS011;42141;53.240;6.580;2022-10-22T07:38:26;15.18;;;5.38;;
56233;SDS011;42141;53.240;6.580;2022-10-22T07:40:53;9.18;;;5.53;;
56233;SDS011;42141;53.240;6.580;2022-10-22T07:43:18;9.55;;;5.05;;
56233;SDS011;42141;53.240;6.580;2022-10-22T07:45:44;14.90;;;5.65;;
56233;SDS011;42141;53.240;6.580;2022-10-22T07:48:10;11.88;;;5.10;;
56233;SDS011;42141;53.240;6.580;2022-10-22T07:50:36;12.20;;;4.97;;
56233;SDS011;42141;53.240;6.580;2022-10-22T07:53:02;17.60;;;5.38;;
56233;SDS011;42141;53.240;6.580;2022-10-22T07:55:28;12.90;;;5.70;;
56233;SDS011;42141;53.240;6.580;2022-10-22T07:57:54;14.00;;;5.35;;
56233;SDS011;42141;53.240;6.580;2022-10-22T08:00:19;14.57;;;5.28;;
56233;SDS011;42141;53.240;6.580;2022-10-22T08:02:45;12.95;;;5.85;;
56233;SDS011;42141;53.240;6.580;2022-10-22T08:05:11;12.77;;;5.90;;
56233;SDS011;42141;53.240;6.580;2022-10-22T08:07:40;10.77;;;4.70;;
56233;SDS011;42141;53.240;6.580;2022-10-22T08:10:07;14.95;;;4.75;;
56233;SDS011;42141;53.240;6.580;2022-10-22T08:12:33;18.85;;;5.18;;
56233;SDS011;42141;53.240;6.580;2022-10-22T08:14:59;10.65;;;4.40;;
56233;SDS011;42141;53.240;6.580;2022-10-22T08:17:25;13.82;;;5.18;;
56233;SDS011;42141;53.240;6.580;2022-10-22T08:19:52;11.02;;;5.65;;
56233;SDS011;42141;53.240;6.580;2022-10-22T08:22:17;14.65;;;5.32;;
56233;SDS011;42141;53.240;6.580;2022-10-22T08:24:43;10.55;;;4.78;;
56233;SDS011;42141;53.240;6.580;2022-10-22T08:27:09;10.10;;;4.40;;
56233;SDS011;42141;53.240;6.580;2022-10-22T08:29:35;14.75;;;4.80;;
56233;SDS011;42141;53.240;6.580;2022-10-22T08:32:00;19.23;;;4.57;;
56233;SDS011;42141;53.240;6.580;2022-10-22T08:34:27;14.93;;;5.40;;
56233;SDS011;42141;53.240;6.580;2022-10-22T08:36:53;9.55;;;4.32;;
56233;SDS011;42141;53.240;6.580;2022-10-22T08:39:19;14.50;;;4.60;;
56233;SDS011;42141;53.240;6.580;2022-10-22T08:50:15;10.18;;;4.15;;
56233;SDS011;42141;53.240;6.580;2022-10-22T08:52:50;10.23;;;4.68;;
56233;SDS011;42141;53.240;6.580;2022-10-22T08:55:22;13.35;;;4.50;;
56233;SDS011;42141;53.240;6.580;2022-10-22T09:00:58;14.70;;;4.03;;
56233;SDS011;42141;53.240;6.580;2022-10-22T09:08:16;12.65;;;4.22;;
56233;SDS011;42141;53.240;6.580;2022-10-22T09:10:52;15.70;;;4.03;;
56233;SDS011;42141;53.240;6.580;2022-10-22T09:13:26;12.18;;;4.03;;
56233;SDS011;42141;53.240;6.580;2022-10-22T09:15:54;16.13;;;4.43;;
56233;SDS011;42141;53.240;6.580;2022-10-22T09:24:08;10.23;;;3.22;;
56233;SDS011;42141;53.240;6.580;2022-10-22T09:26:52;8.80;;;3.85;;
56233;SDS011;42141;53.240;6.580;2022-10-22T09:29:21;14.30;;;3.20;;
56233;SDS011;42141;53.240;6.580;2022-10-22T09:31:49;10.80;;;3.30;;
56233;SDS011;42141;53.240;6.580;2022-10-22T09:34:16;12.80;;;3.30;;
56233;SDS011;42141;53.240;6.580;2022-10-22T09:36:44;14.45;;;3.08;;
56233;SDS011;42141;53.240;6.580;2022-10-22T09:39:24;8.98;;;3.40;;
56233;SDS011;42141;53.240;6.580;2022-10-22T09:41:52;12.38;;;3.25;;
56233;SDS011;42141;53.240;6.580;2022-10-22T09:44:18;8.30;;;2.72;;
56233;SDS011;42141;53.240;6.580;2022-10-22T09:46:45;14.45;;;2.85;;
56233;SDS011;42141;53.240;6.580;2022-10-22T09:49:21;7.80;;;3.20;;
56233;SDS011;42141;53.240;6.580;2022-10-22T09:54:18;10.52;;;3.35;;
56233;SDS011;42141;53.240;6.580;2022-10-22T09:56:54;12.35;;;3.85;;
56233;SDS011;42141;53.240;6.580;2022-10-22T09:59:29;14.85;;;3.00;;
56233;SDS011;42141;53.240;6.580;2022-10-22T10:01:57;12.43;;;3.10;;
56233;SDS011;42141;53.240;6.580;2022-10-22T10:04:33;14.43;;;3.03;;
56233;SDS011;42141;53.240;6.580;2022-10-22T10:07:00;12.95;;;4.38;;
56233;SDS011;42141;53.240;6.580;2022-10-22T10:09:26;11.90;;;3.50;;
56233;SDS011;42141;53.240;6.580;2022-10-22T10:20:23;11.43;;;3.22;;
56233;SDS011;42141;53.240;6.580;2022-10-22T10:23:21;15.13;;;3.42;;
56233;SDS011;42141;53.240;6.580;2022-10-22T10:29:06;15.48;;;3.65;;
56233;SDS011;42141;53.240;6.580;2022-10-22T10:34:38;11.70;;;3.72;;
56233;SDS011;42141;53.240;6.580;2022-10-22T10:37:27;12.60;;;3.53;;
56233;SDS011;42141;53.240;6.580;2022-10-22T10:54:03;16.50;;;3.60;;
56233;SDS011;42141;53.240;6.580;2022-10-22T10:56:51;8.70;;;3.10;;
56233;SDS011;42141;53.240;6.580;2022-10-22T11:04:52;15.52;;;3.88;;
56233;SDS011;42141;53.240;6.580;2022-10-22T11:07:24;10.70;;;3.78;;
56233;SDS011;42141;53.240;6.580;2022-10-22T11:10:32;18.90;;;4.65;;
56233;SDS011;42141;53.240;6.580;2022-10-22T11:13:07;10.48;;;3.40;;
56233;SDS011;42141;53.240;6.580;2022-10-22T11:15:39;8.77;;;3.08;;
56233;SDS011;42141;53.240;6.580;2022-10-22T11:21:40;16.20;;;4.07;;
56233;SDS011;42141;53.240;6.580;2022-10-22T11:29:46;10.95;;;2.72;;
56233;SDS011;42141;53.240;6.580;2022-10-22T11:32:20;13.73;;;3.70;;
56233;SDS011;42141;53.240;6.580;2022-10-22T11:34:50;8.68;;;3.20;;
56233;SDS011;42141;53.240;6.580;2022-10-22T11:37:20;7.57;;;3.40;;
56233;SDS011;42141;53.240;6.580;2022-10-22T11:39:52;10.23;;;3.72;;
56233;SDS011;42141;53.240;6.580;2022-10-22T11:42:22;11.50;;;3.38;;
56233;SDS011;42141;53.240;6.580;2022-10-22T11:45:00;8.38;;;3.88;;
56233;SDS011;42141;53.240;6.580;2022-10-22T11:47:37;10.25;;;3.60;;
56233;SDS011;42141;53.240;6.580;2022-10-22T11:50:26;8.10;;;3.55;;
56233;SDS011;42141;53.240;6.580;2022-10-22T11:56:03;17.25;;;4.28;;
56233;SDS011;42141;53.240;6.580;2022-10-22T11:58:48;8.52;;;3.17;;
56233;SDS011;42141;53.240;6.580;2022-10-22T12:01:21;9.38;;;3.92;;
56233;SDS011;42141;53.240;6.580;2022-10-22T12:03:50;14.27;;;4.43;;
56233;SDS011;42141;53.240;6.580;2022-10-22T12:06:50;10.25;;;4.45;;
56233;SDS011;42141;53.240;6.580;2022-10-22T12:09:18;17.05;;;4.45;;
56233;SDS011;42141;53.240;6.580;2022-10-22T12:11:46;11.02;;;3.80;;
56233;SDS011;42141;53.240;6.580;2022-10-22T12:19:46;15.40;;;4.53;;
56233;SDS011;42141;53.240;6.580;2022-10-22T12:22:27;12.80;;;4.43;;
56233;SDS011;42141;53.240;6.580;2022-10-22T12:25:01;12.77;;;4.85;;
56233;SDS011;42141;53.240;6.580;2022-10-22T12:27:36;10.23;;;4.10;;
56233;SDS011;42141;53.240;6.580;2022-10-22T12:32:58;13.68;;;4.57;;
56233;SDS011;42141;53.240;6.580;2022-10-22T12:35:26;13.65;;;3.63;;
56233;SDS011;42141;53.240;6.580;2022-10-22T12:37:57;10.00;;;3.97;;
56233;SDS011;42141;53.240;6.580;2022-10-22T12:40:27;12.63;;;3.90;;
56233;SDS011;42141;53.240;6.580;2022-10-22T12:42:56;15.35;;;3.83;;
56233;SDS011;42141;53.240;6.580;2022-10-22T12:45:27;11.52;;;3.97;;
56233;SDS011;42141;53.240;6.580;2022-10-22T12:47:55;18.33;;;4.80;;
56233;SDS011;42141;53.240;6.580;2022-10-22T12:50:30;11.90;;;4.13;;
56233;SDS011;42141;53.240;6.580;2022-10-22T12:53:01;9.23;;;3.28;;
56233;SDS011;42141;53.240;6.580;2022-10-22T12:55:28;15.95;;;3.65;;
56233;SDS011;42141;53.240;6.580;2022-10-22T12:57:57;7.70;;;2.92;;
56233;SDS011;42141;53.240;6.580;2022-10-22T13:00:27;10.38;;;4.13;;
56233;SDS011;42141;53.240;6.580;2022-10-22T13:02:58;12.07;;;3.30;;
56233;SDS011;42141;53.240;6.580;2022-10-22T13:05:30;11.95;;;2.88;;
56233;SDS011;42141;53.240;6.580;2022-10-22T13:10:32;8.10;;;2.15;;
56233;SDS011;42141;53.240;6.580;2022-10-22T13:13:00;11.65;;;2.30;;
56233;SDS011;42141;53.240;6.580;2022-10-22T13:20:57;10.80;;;2.25;;
56233;SDS011;42141;53.240;6.580;2022-10-22T13:23:27;9.98;;;2.50;;
56233;SDS011;42141;53.240;6.580;2022-10-22T13:25:56;8.20;;;1.95;;
56233;SDS011;42141;53.240;6.580;2022-10-22T13:28:40;8.95;;;1.75;;
56233;SDS011;42141;53.240;6.580;2022-10-22T13:31:14;7.07;;;1.85;;
56233;SDS011;42141;53.240;6.580;2022-10-22T13:33:43;10.88;;;2.05;;
56233;SDS011;42141;53.240;6.580;2022-10-22T13:36:14;9.55;;;1.90;;
56233;SDS011;42141;53.240;6.580;2022-10-22T13:38:41;9.45;;;2.20;;
56233;SDS011;42141;53.240;6.580;2022-10-22T13:41:21;8.90;;;2.10;;
56233;SDS011;42141;53.240;6.580;2022-10-22T13:43:47;10.98;;;1.83;;
56233;SDS011;42141;53.240;6.580;2022-10-22T13:46:17;6.28;;;1.65;;
56233;SDS011;42141;53.240;6.580;2022-10-22T13:48:43;10.18;;;1.77;;
56233;SDS011;42141;53.240;6.580;2022-10-22T13:51:12;8.77;;;1.60;;
56233;SDS011;42141;53.240;6.580;2022-10-22T13:53:46;7.30;;;1.48;;
56233;SDS011;42141;53.240;6.580;2022-10-22T13:56:14;13.80;;;2.22;;
56233;SDS011;42141;53.240;6.580;2022-10-22T13:58:42;8.13;;;1.58;;
56233;SDS011;42141;53.240;6.580;2022-10-22T14:01:22;4.32;;;0.95;;
56233;SDS011;42141;53.240;6.580;2022-10-22T14:03:56;8.40;;;1.65;;
56233;SDS011;42141;53.240;6.580;2022-10-22T14:06:24;12.55;;;1.85;;
56233;SDS011;42141;53.240;6.580;2022-10-22T14:08:56;4.78;;;1.10;;
56233;SDS011;42141;53.240;6.580;2022-10-22T14:11:37;10.30;;;1.55;;
56233;SDS011;42141;53.240;6.580;2022-10-22T14:14:03;8.18;;;1.10;;
56233;SDS011;42141;53.240;6.580;2022-10-22T14:16:32;10.55;;;2.47;;
56233;SDS011;42141;53.240;6.580;2022-10-22T14:18:59;10.13;;;1.48;;
56233;SDS011;42141;53.240;6.580;2022-10-22T14:21:35;10.95;;;1.45;;
56233;SDS011;42141;53.240;6.580;2022-10-22T14:24:02;6.03;;;1.30;;
56233;SDS011;42141;53.240;6.580;2022-10-22T14:26:29;7.35;;;1.65;;
56233;SDS011;42141;53.240;6.580;2022-10-22T14:28:57;12.43;;;1.80;;
56233;SDS011;42141;53.240;6.580;2022-10-22T14:31:24;8.77;;;1.45;;
56233;SDS011;42141;53.240;6.580;2022-10-22T14:33:51;11.45;;;1.30;;
56233;SDS011;42141;53.240;6.580;2022-10-22T14:36:20;6.35;;;1.52;;
56233;SDS011;42141;53.240;6.580;2022-10-22T14:38:46;11.48;;;2.05;;
56233;SDS011;42141;53.240;6.580;2022-10-22T14:41:15;8.88;;;2.30;;
56233;SDS011;42141;53.240;6.580;2022-10-22T14:43:45;4.38;;;0.98;;
56233;SDS011;42141;53.240;6.580;2022-10-22T14:46:15;7.47;;;1.30;;
56233;SDS011;42141;53.240;6.580;2022-10-22T14:48:41;6.93;;;1.30;;
56233;SDS011;42141;53.240;6.580;2022-10-22T14:51:11;9.13;;;1.55;;
56233;SDS011;42141;53.240;6.580;2022-10-22T14:53:42;9.18;;;1.30;;
56233;SDS011;42141;53.240;6.580;2022-10-22T14:56:10;5.07;;;1.00;;
56233;SDS011;42141;53.240;6.580;2022-10-22T14:58:37;8.60;;;1.00;;
56233;SDS011;42141;53.240;6.580;2022-10-22T15:01:03;5.97;;;0.82;;
56233;SDS011;42141;53.240;6.580;2022-10-22T15:03:29;6.28;;;0.80;;
56233;SDS011;42141;53.240;6.580;2022-10-22T15:05:55;3.80;;;0.80;;
56233;SDS011;42141;53.240;6.580;2022-10-22T15:08:22;7.65;;;0.90;;
56233;SDS011;42141;53.240;6.580;2022-10-22T15:11:08;5.03;;;0.77;;
56233;SDS011;42141;53.240;6.580;2022-10-22T15:13:35;5.28;;;1.00;;
56233;SDS011;42141;53.240;6.580;2022-10-22T15:16:04;9.43;;;1.38;;
56233;SDS011;42141;53.240;6.580;2022-10-22T15:18:30;9.48;;;1.08;;
56233;SDS011;42141;53.240;6.580;2022-10-22T15:21:01;10.95;;;1.90;;
56233;SDS011;42141;53.240;6.580;2022-10-22T15:23:31;7.95;;;0.80;;
56233;SDS011;42141;53.240;6.580;2022-10-22T15:25:57;14.32;;;1.70;;
56233;SDS011;42141;53.240;6.580;2022-10-22T15:28:23;12.57;;;1.67;;
56233;SDS011;42141;53.240;6.580;2022-10-22T15:30:56;3.88;;;0.73;;
56233;SDS011;42141;53.240;6.580;2022-10-22T15:33:23;8.50;;;1.25;;
56233;SDS011;42141;53.240;6.580;2022-10-22T15:35:50;7.03;;;1.65;;
56233;SDS011;42141;53.240;6.580;2022-10-22T15:38:16;9.45;;;1.25;;
56233;SDS011;42141;53.240;6.580;2022-10-22T15:40:51;7.75;;;1.10;;
56233;SDS011;42141;53.240;6.580;2022-10-22T15:43:35;9.60;;;1.15;;
56233;SDS011;42141;53.240;6.580;2022-10-22T15:46:12;11.60;;;1.88;;
56233;SDS011;42141;53.240;6.580;2022-10-22T15:48:42;14.27;;;1.80;;
56233;SDS011;42141;53.240;6.580;2022-10-22T15:51:15;9.02;;;2.25;;
56233;SDS011;42141;53.240;6.580;2022-10-22T15:53:43;12.48;;;2.17;;
56233;SDS011;42141;53.240;6.580;2022-10-22T15:56:20;11.77;;;2.20;;
56233;SDS011;42141;53.240;6.580;2022-10-22T15:58:47;11.93;;;2.00;;
56233;SDS011;42141;53.240;6.580;2022-10-22T16:01:17;13.50;;;2.08;;
56233;SDS011;42141;53.240;6.580;2022-10-22T16:03:43;15.05;;;2.20;;
56233;SDS011;42141;53.240;6.580;2022-10-22T16:06:09;12.57;;;2.40;;
56233;SDS011;42141;53.240;6.580;2022-10-22T16:08:35;12.00;;;1.98;;
56233;SDS011;42141;53.240;6.580;2022-10-22T16:11:01;16.75;;;2.08;;
56233;SDS011;42141;53.240;6.580;2022-10-22T16:13:27;6.75;;;1.52;;
56233;SDS011;42141;53.240;6.580;2022-10-22T16:15:52;13.55;;;1.70;;
56233;SDS011;42141;53.240;6.580;2022-10-22T16:18:18;16.52;;;2.40;;
56233;SDS011;42141;53.240;6.580;2022-10-22T16:20:45;11.18;;;2.08;;
56233;SDS011;42141;53.240;6.580;2022-10-22T16:23:11;16.40;;;2.10;;
56233;SDS011;42141;53.240;6.580;2022-10-22T16:25:39;13.85;;;2.38;;
56233;SDS011;42141;53.240;6.580;2022-10-22T16:28:06;11.93;;;2.47;;
56233;SDS011;42141;53.240;6.580;2022-10-22T16:30:33;11.63;;;2.00;;
56233;SDS011;42141;53.240;6.580;2022-10-22T16:33:00;23.20;;;3.08;;
56233;SDS011;42141;53.240;6.580;2022-10-22T16:35:27;14.90;;;2.05;;
56233;SDS011;42141;53.240;6.580;2022-10-22T16:37:54;21.15;;;3.00;;
56233;SDS011;42141;53.240;6.580;2022-10-22T16:40:20;14.57;;;2.45;;